Time;durP1;ratioP1;P1;durP2;ratioP2;P2;SDS_P1;SDS_P2;PMS_P1;PMS_P2;Temp;Humidity;BMP_temperature;BMP_pressure;BME280_temperature;BME280_humidity;BME280_pressure;Samples;Min_cycle;Max_cycle;Signal;HPM_P1;HPM_P2
2022/11/13 00:01:18;;;;;;;13.93;8.00;;;;;;;;;;4978450;28;20038;-62
2022/11/13 00:04:02;;;;;;;10.57;7.53;;;;;;;;;;4985535;28;20101;-62
2022/11/13 00:06:47;;;;;;;17.55;7.70;;;;;;;;;;4976739;28;20099;-62
2022/11/13 00:09:32;;;;;;;16.38;7.80;;;;;;;;;;4976758;28;20049;-62
2022/11/13 00:12:16;;;;;;;16.38;8.23;;;;;;;;;;4985869;28;20046;-62
2022/11/13 00:15:01;;;;;;;15.45;7.65;;;;;;;;;;4978138;28;20100;-62
2022/11/13 00:17:45;;;;;;;15.02;7.70;;;;;;;;;;4974949;28;20073;-62
2022/11/13 00:20:30;;;;;;;19.90;7.82;;;;;;;;;;4971431;28;20042;-62
2022/11/13 00:23:14;;;;;;;13.25;7.80;;;;;;;;;;4979872;28;20049;-62
2022/11/13 00:26:13;;;;;;;15.43;7.90;;;;;;;;;;4972982;28;20033;-62
2022/11/13 00:28:59;;;;;;;10.88;7.05;;;;;;;;;;4977857;28;20399;-62
2022/11/13 00:31:44;;;;;;;9.77;6.95;;;;;;;;;;4975053;28;20121;-62
2022/11/13 00:34:29;;;;;;;12.60;7.38;;;;;;;;;;4973275;28;20038;-62
2022/11/13 00:37:13;;;;;;;12.27;7.50;;;;;;;;;;4978893;28;20041;-62
2022/11/13 00:39:58;;;;;;;12.10;7.22;;;;;;;;;;4985589;28;20119;-62
2022/11/13 00:42:42;;;;;;;13.13;8.43;;;;;;;;;;4977317;28;20045;-62
2022/11/13 00:45:27;;;;;;;14.65;7.90;;;;;;;;;;4981356;28;20073;-62
2022/11/13 00:48:11;;;;;;;15.40;8.82;;;;;;;;;;4988692;28;20081;-62
2022/11/13 00:50:56;;;;;;;13.77;7.72;;;;;;;;;;4978961;28;20034;-62
2022/11/13 00:53:40;;;;;;;14.18;7.80;;;;;;;;;;4984425;28;20041;-62
2022/11/13 00:56:25;;;;;;;14.45;9.05;;;;;;;;;;4981514;28;20531;-61
2022/11/13 00:59:10;;;;;;;13.68;9.07;;;;;;;;;;4988672;28;20121;-62
2022/11/13 01:01:54;;;;;;;18.83;8.85;;;;;;;;;;4991986;28;20095;-62
2022/11/13 01:04:39;;;;;;;16.17;8.95;;;;;;;;;;4976246;28;20053;-62
2022/11/13 01:07:23;;;;;;;16.00;9.70;;;;;;;;;;4982793;28;20103;-62
2022/11/13 01:10:08;;;;;;;17.05;9.40;;;;;;;;;;4976137;28;20050;-62
2022/11/13 01:12:52;;;;;;;15.27;9.38;;;;;;;;;;4978540;28;20560;-62
2022/11/13 01:15:41;;;;;;;15.00;8.60;;;;;;;;;;4980105;28;20092;-62
2022/11/13 01:18:25;;;;;;;13.77;8.52;;;;;;;;;;4987848;28;20037;-62
2022/11/13 01:21:21;;;;;;;13.48;9.23;;;;;;;;;;4980710;28;20038;-63
2022/11/13 01:24:05;;;;;;;17.13;8.82;;;;;;;;;;4976239;28;20096;-62
2022/11/13 01:26:50;;;;;;;16.98;8.82;;;;;;;;;;4977731;28;20083;-62
2022/11/13 01:29:34;;;;;;;13.23;9.13;;;;;;;;;;4980405;28;20045;-62
2022/11/13 01:32:19;;;;;;;11.68;8.13;;;;;;;;;;4987526;28;20044;-62
2022/11/13 01:35:03;;;;;;;19.65;8.85;;;;;;;;;;4979256;28;20117;-62
2022/11/13 01:37:48;;;;;;;15.88;8.85;;;;;;;;;;4978820;28;20099;-62
2022/11/13 01:40:33;;;;;;;13.50;8.30;;;;;;;;;;4987933;28;20066;-62
2022/11/13 01:43:28;;;;;;;15.88;7.70;;;;;;;;;;4980619;28;20045;-62
2022/11/13 01:46:19;;;;;;;17.90;8.73;;;;;;;;;;4974826;28;20053;-62
2022/11/13 01:49:12;;;;;;;13.50;8.77;;;;;;;;;;4973725;28;20076;-62
2022/11/13 01:51:56;;;;;;;17.92;8.48;;;;;;;;;;4985900;28;20041;-62
2022/11/13 01:54:53;;;;;;;13.18;7.90;;;;;;;;;;4975599;28;20036;-62
2022/11/13 01:57:38;;;;;;;14.43;8.35;;;;;;;;;;4991109;28;20107;-62
2022/11/13 02:00:22;;;;;;;16.48;9.35;;;;;;;;;;4974385;28;20164;-62
2022/11/13 02:03:07;;;;;;;12.63;8.30;;;;;;;;;;4985036;28;20050;-62
2022/11/13 02:05:52;;;;;;;17.13;9.20;;;;;;;;;;4990895;28;20040;-62
2022/11/13 02:08:37;;;;;;;15.82;8.68;;;;;;;;;;4975167;28;20088;-62
2022/11/13 02:11:22;;;;;;;17.48;8.45;;;;;;;;;;4982371;28;20084;-62
2022/11/13 02:14:08;;;;;;;13.68;8.90;;;;;;;;;;4986396;28;20567;-62
2022/11/13 02:16:56;;;;;;;20.58;9.02;;;;;;;;;;4976476;28;20472;-62
2022/11/13 02:19:46;;;;;;;16.80;8.13;;;;;;;;;;4979938;28;20038;-62
2022/11/13 02:22:52;;;;;;;15.10;8.85;;;;;;;;;;4987311;28;20041;-62
2022/11/13 02:25:37;;;;;;;13.90;9.10;;;;;;;;;;4981803;28;20441;-62
2022/11/13 02:28:22;;;;;;;18.55;8.63;;;;;;;;;;4974642;28;20088;-62
2022/11/13 02:31:11;;;;;;;16.20;8.15;;;;;;;;;;4977541;28;20064;-62
2022/11/13 02:33:55;;;;;;;16.58;9.65;;;;;;;;;;4977969;28;20522;-61
2022/11/13 02:36:40;;;;;;;21.02;9.35;;;;;;;;;;4986932;28;20061;-62
2022/11/13 02:39:24;;;;;;;16.50;9.95;;;;;;;;;;4980122;28;20045;-62
2022/11/13 02:42:09;;;;;;;17.50;9.93;;;;;;;;;;4989212;28;20415;-62
2022/11/13 02:44:53;;;;;;;17.38;10.10;;;;;;;;;;4975346;28;20148;-62
2022/11/13 02:47:38;;;;;;;20.10;10.05;;;;;;;;;;4982364;28;20072;-63
2022/11/13 02:50:23;;;;;;;16.95;9.90;;;;;;;;;;4974051;28;20053;-62
2022/11/13 02:53:07;;;;;;;15.77;10.23;;;;;;;;;;4976430;28;20469;-62
2022/11/13 02:55:52;;;;;;;16.67;10.25;;;;;;;;;;4982169;28;20049;-62
2022/11/13 02:58:36;;;;;;;15.93;9.57;;;;;;;;;;4986545;28;20392;-62
2022/11/13 03:01:21;;;;;;;19.15;10.15;;;;;;;;;;4978684;28;20069;-62
2022/11/13 03:04:06;;;;;;;16.73;9.43;;;;;;;;;;4984077;28;20479;-62
2022/11/13 03:06:50;;;;;;;17.90;9.98;;;;;;;;;;4985897;28;20073;-62
2022/11/13 03:09:34;;;;;;;18.50;10.05;;;;;;;;;;4979973;28;20079;-62
2022/11/13 03:12:19;;;;;;;21.02;11.05;;;;;;;;;;4975069;28;20092;-62
2022/11/13 03:15:04;;;;;;;17.38;10.38;;;;;;;;;;4975572;28;20038;-62
2022/11/13 03:17:49;;;;;;;17.20;10.85;;;;;;;;;;4979075;28;20042;-62
2022/11/13 03:20:36;;;;;;;16.20;9.75;;;;;;;;;;4986667;28;20037;-62
2022/11/13 03:23:20;;;;;;;18.02;10.82;;;;;;;;;;4977813;28;20085;-62
2022/11/13 03:26:09;;;;;;;20.02;10.85;;;;;;;;;;4977193;28;20443;-62
2022/11/13 03:28:54;;;;;;;17.45;10.27;;;;;;;;;;4973976;28;20517;-62
2022/11/13 03:31:39;;;;;;;21.27;11.05;;;;;;;;;;4980376;28;20565;-62
2022/11/13 03:34:23;;;;;;;21.55;10.85;;;;;;;;;;4985810;28;20050;-62
2022/11/13 03:37:08;;;;;;;19.92;11.43;;;;;;;;;;4975881;28;20467;-62
2022/11/13 03:39:52;;;;;;;17.83;11.43;;;;;;;;;;4978446;28;20109;-62
2022/11/13 03:42:37;;;;;;;22.80;10.88;;;;;;;;;;4985814;28;20037;-62
2022/11/13 03:45:21;;;;;;;17.70;10.75;;;;;;;;;;4977652;28;20052;-62
2022/11/13 03:48:06;;;;;;;21.00;10.77;;;;;;;;;;4977098;28;20033;-62
2022/11/13 03:50:52;;;;;;;20.17;10.27;;;;;;;;;;4986085;28;20443;-62
2022/11/13 03:53:37;;;;;;;18.38;10.48;;;;;;;;;;4978663;28;20518;-62
2022/11/13 03:56:21;;;;;;;21.83;11.50;;;;;;;;;;4982450;28;20093;-62
2022/11/13 03:59:06;;;;;;;18.50;11.25;;;;;;;;;;4974741;28;20071;-62
2022/11/13 04:01:51;;;;;;;17.25;10.50;;;;;;;;;;4978737;28;20247;-62
2022/11/13 04:04:35;;;;;;;23.05;10.45;;;;;;;;;;4985753;28;20099;-62
2022/11/13 04:07:20;;;;;;;23.83;11.65;;;;;;;;;;4976329;28;20045;-62
2022/11/13 04:10:05;;;;;;;21.42;10.82;;;;;;;;;;4977388;28;20034;-62
2022/11/13 04:12:50;;;;;;;22.10;10.88;;;;;;;;;;4985733;28;20582;-62
2022/11/13 04:15:34;;;;;;;25.15;12.43;;;;;;;;;;4978084;28;20041;-62
2022/11/13 04:18:19;;;;;;;17.65;11.40;;;;;;;;;;4981447;28;20751;-62
2022/11/13 04:21:04;;;;;;;15.02;10.93;;;;;;;;;;4977292;28;20041;-62
2022/11/13 04:23:49;;;;;;;21.88;10.85;;;;;;;;;;4982514;28;20118;-62
2022/11/13 04:26:34;;;;;;;21.02;10.80;;;;;;;;;;4988299;28;20545;-62
2022/11/13 04:29:18;;;;;;;19.95;10.50;;;;;;;;;;4978781;28;20080;-62
2022/11/13 04:32:03;;;;;;;17.10;10.13;;;;;;;;;;4981555;28;20085;-62
2022/11/13 04:34:47;;;;;;;16.83;10.88;;;;;;;;;;4988857;28;20513;-62
2022/11/13 04:37:32;;;;;;;19.98;10.20;;;;;;;;;;4980609;28;20135;-62
2022/11/13 04:40:17;;;;;;;21.13;10.55;;;;;;;;;;4986026;28;20563;-62
2022/11/13 04:43:01;;;;;;;21.73;10.50;;;;;;;;;;4976227;28;20061;-62
2022/11/13 04:45:46;;;;;;;19.42;10.07;;;;;;;;;;4983083;28;20038;-62
2022/11/13 04:48:30;;;;;;;17.98;9.57;;;;;;;;;;4977004;28;20037;-62
2022/11/13 04:51:15;;;;;;;23.83;9.98;;;;;;;;;;4977968;28;20080;-62
2022/11/13 04:54:00;;;;;;;17.83;10.55;;;;;;;;;;4981142;28;20045;-61
2022/11/13 04:56:44;;;;;;;18.33;9.85;;;;;;;;;;4988843;28;20059;-62
2022/11/13 04:59:29;;;;;;;16.23;10.13;;;;;;;;;;4985643;28;20404;-62
2022/11/13 05:02:13;;;;;;;16.65;9.48;;;;;;;;;;4982975;28;20076;-62
2022/11/13 05:04:58;;;;;;;35.80;10.43;;;;;;;;;;4989624;28;20049;-62
2022/11/13 05:07:43;;;;;;;17.98;9.77;;;;;;;;;;4984003;28;20038;-62
2022/11/13 05:10:27;;;;;;;17.35;9.18;;;;;;;;;;4986359;28;20118;-61
2022/11/13 05:13:12;;;;;;;26.02;11.10;;;;;;;;;;4975361;28;20519;-62
2022/11/13 05:16:04;;;;;;;15.52;10.32;;;;;;;;;;4981585;28;20040;-62
2022/11/13 05:18:49;;;;;;;17.42;9.65;;;;;;;;;;4975257;28;20045;-62
2022/11/13 05:21:37;;;;;;;22.50;10.43;;;;;;;;;;4982629;28;20042;-62
2022/11/13 05:24:21;;;;;;;13.57;9.27;;;;;;;;;;4985049;28;20397;-62
2022/11/13 05:27:06;;;;;;;14.95;9.27;;;;;;;;;;4974832;28;20038;-62
2022/11/13 05:29:50;;;;;;;21.75;10.13;;;;;;;;;;4982987;28;20077;-62
2022/11/13 05:32:35;;;;;;;18.85;9.80;;;;;;;;;;4987024;28;20522;-62
2022/11/13 05:35:19;;;;;;;15.95;9.70;;;;;;;;;;4976597;28;20100;-62
2022/11/13 05:38:04;;;;;;;18.55;8.80;;;;;;;;;;4981192;28;20045;-62
2022/11/13 05:40:48;;;;;;;16.77;10.32;;;;;;;;;;4988113;28;20472;-62
2022/11/13 05:43:33;;;;;;;16.48;9.25;;;;;;;;;;4975031;28;20038;-62
2022/11/13 05:46:22;;;;;;;15.45;9.63;;;;;;;;;;4984264;28;20041;-62
2022/11/13 05:49:09;;;;;;;17.60;9.88;;;;;;;;;;4975254;28;20059;-62
2022/11/13 05:51:54;;;;;;;21.70;9.82;;;;;;;;;;4982653;28;20045;-62
2022/11/13 05:54:39;;;;;;;20.40;9.95;;;;;;;;;;4985418;28;20037;-62
2022/11/13 05:57:23;;;;;;;17.50;9.43;;;;;;;;;;4972378;28;20124;-62
2022/11/13 06:00:08;;;;;;;24.25;9.60;;;;;;;;;;4982011;28;20411;-62
2022/11/13 06:02:53;;;;;;;17.17;9.73;;;;;;;;;;4974432;28;20408;-62
2022/11/13 06:05:37;;;;;;;14.73;9.30;;;;;;;;;;4986633;28;20472;-62
2022/11/13 06:08:22;;;;;;;16.52;9.90;;;;;;;;;;4981190;28;20115;-62
2022/11/13 06:11:08;;;;;;;14.13;9.38;;;;;;;;;;4981216;28;20038;-62
2022/11/13 06:13:54;;;;;;;17.88;10.20;;;;;;;;;;4979985;28;20403;-62
2022/11/13 06:16:39;;;;;;;15.55;9.60;;;;;;;;;;4980876;28;20444;-62
2022/11/13 06:19:23;;;;;;;14.60;9.05;;;;;;;;;;4982099;28;20084;-62
2022/11/13 06:22:08;;;;;;;18.30;9.35;;;;;;;;;;4981200;28;20077;-62
2022/11/13 06:24:52;;;;;;;18.73;11.00;;;;;;;;;;4981224;28;20049;-62
2022/11/13 06:27:37;;;;;;;17.10;9.18;;;;;;;;;;4980382;28;20455;-62
2022/11/13 06:30:21;;;;;;;15.80;9.15;;;;;;;;;;4979248;28;20045;-62
2022/11/13 06:33:06;;;;;;;14.25;8.45;;;;;;;;;;4979247;28;20562;-62
2022/11/13 06:35:51;;;;;;;12.95;8.00;;;;;;;;;;4981072;28;20345;-62
2022/11/13 06:38:36;;;;;;;19.35;9.40;;;;;;;;;;4980761;28;20037;-62
2022/11/13 06:41:28;;;;;;;12.95;8.27;;;;;;;;;;4980413;28;20454;-62
2022/11/13 06:44:12;;;;;;;18.08;8.57;;;;;;;;;;4980272;28;20092;-62
2022/11/13 06:46:57;;;;;;;16.92;8.63;;;;;;;;;;4981822;28;20091;-62
2022/11/13 06:49:41;;;;;;;14.25;8.18;;;;;;;;;;4981925;28;20046;-62
2022/11/13 06:52:26;;;;;;;16.38;9.10;;;;;;;;;;4980306;28;20527;-62
2022/11/13 06:55:10;;;;;;;14.55;8.82;;;;;;;;;;4980426;28;20496;-62
2022/11/13 06:57:55;;;;;;;15.18;8.15;;;;;;;;;;4981677;28;20037;-62
2022/11/13 07:00:40;;;;;;;13.10;8.13;;;;;;;;;;4978838;28;20064;-62
2022/11/13 07:03:26;;;;;;;19.05;8.70;;;;;;;;;;4979137;28;20049;-62
2022/11/13 07:06:15;;;;;;;18.88;8.90;;;;;;;;;;4979292;28;20412;-62
2022/11/13 07:08:59;;;;;;;14.38;8.60;;;;;;;;;;4981129;28;20046;-62
2022/11/13 07:11:44;;;;;;;13.63;9.68;;;;;;;;;;4979196;28;20057;-62
2022/11/13 07:14:28;;;;;;;15.50;8.88;;;;;;;;;;4978878;28;20065;-61
2022/11/13 07:17:13;;;;;;;17.38;9.27;;;;;;;;;;4981223;28;21936;-62
2022/11/13 07:19:57;;;;;;;15.77;9.18;;;;;;;;;;4976121;28;20154;-62
2022/11/13 07:22:42;;;;;;;13.60;8.40;;;;;;;;;;4981601;28;20077;-62
2022/11/13 07:25:27;;;;;;;15.45;8.82;;;;;;;;;;4983310;28;20046;-62
2022/11/13 07:28:11;;;;;;;14.95;8.18;;;;;;;;;;4978162;28;20435;-61
2022/11/13 07:30:57;;;;;;;20.02;9.43;;;;;;;;;;4977655;28;20057;-62
2022/11/13 07:33:43;;;;;;;14.68;9.23;;;;;;;;;;4985178;28;20581;-62
2022/11/13 07:36:27;;;;;;;16.10;9.18;;;;;;;;;;4980475;28;20126;-62
2022/11/13 07:39:12;;;;;;;20.50;10.13;;;;;;;;;;4978882;28;20149;-63
2022/11/13 07:41:56;;;;;;;16.25;9.07;;;;;;;;;;4979821;28;20508;-62
2022/11/13 07:44:41;;;;;;;16.35;8.77;;;;;;;;;;4978363;28;20164;-62
2022/11/13 07:47:25;;;;;;;14.30;9.27;;;;;;;;;;4977792;28;20427;-62
2022/11/13 07:50:10;;;;;;;16.35;8.82;;;;;;;;;;4980114;28;20046;-62
2022/11/13 07:52:58;;;;;;;20.20;9.40;;;;;;;;;;4989475;28;20556;-62
2022/11/13 07:55:43;;;;;;;18.42;9.07;;;;;;;;;;4987134;28;20057;-62
2022/11/13 07:58:27;;;;;;;14.85;8.32;;;;;;;;;;4987927;28;20375;-62
2022/11/13 08:01:12;;;;;;;14.70;8.48;;;;;;;;;;4985509;28;20045;-62
2022/11/13 08:03:57;;;;;;;15.25;8.65;;;;;;;;;;4975643;28;20053;-62
2022/11/13 08:06:42;;;;;;;11.60;8.10;;;;;;;;;;4981170;28;20132;-61
2022/11/13 08:09:26;;;;;;;15.57;9.00;;;;;;;;;;4984260;28;20053;-62
2022/11/13 08:12:11;;;;;;;14.35;8.30;;;;;;;;;;4983600;28;20495;-62
2022/11/13 08:14:55;;;;;;;15.18;8.18;;;;;;;;;;4985261;28;20391;-62
2022/11/13 08:17:39;;;;;;;11.48;8.48;;;;;;;;;;4979471;28;20126;-62
2022/11/13 08:20:25;;;;;;;16.67;8.88;;;;;;;;;;4979161;28;20083;-62
2022/11/13 08:23:09;;;;;;;15.13;8.52;;;;;;;;;;4988941;28;20037;-62
2022/11/13 08:25:54;;;;;;;13.60;8.80;;;;;;;;;;4983104;28;20416;-62
2022/11/13 08:28:39;;;;;;;15.82;8.10;;;;;;;;;;4981561;28;20086;-62
2022/11/13 08:31:24;;;;;;;14.43;8.80;;;;;;;;;;4982721;28;20053;-62
2022/11/13 08:34:08;;;;;;;12.43;8.20;;;;;;;;;;4980461;28;20044;-62
2022/11/13 08:36:53;;;;;;;13.93;8.30;;;;;;;;;;4977516;28;20088;-62
2022/11/13 08:39:37;;;;;;;14.75;8.10;;;;;;;;;;4982453;28;20111;-62
2022/11/13 08:42:22;;;;;;;16.13;8.45;;;;;;;;;;4980986;28;20041;-62
2022/11/13 08:45:07;;;;;;;17.65;7.75;;;;;;;;;;4980945;28;20038;-62
2022/11/13 08:47:52;;;;;;;13.38;8.32;;;;;;;;;;4981869;28;20440;-62
2022/11/13 08:50:37;;;;;;;17.05;8.20;;;;;;;;;;4982146;28;20127;-61
2022/11/13 08:53:22;;;;;;;16.95;8.60;;;;;;;;;;4985394;28;20403;-62
2022/11/13 08:56:07;;;;;;;16.02;8.23;;;;;;;;;;4974534;28;20045;-62
2022/11/13 08:58:51;;;;;;;13.07;7.53;;;;;;;;;;4974157;28;20034;-62
2022/11/13 09:01:36;;;;;;;16.80;8.32;;;;;;;;;;4982278;28;20045;-62
2022/11/13 09:04:21;;;;;;;18.95;8.10;;;;;;;;;;4978996;28;20049;-62
2022/11/13 09:07:05;;;;;;;14.23;7.68;;;;;;;;;;4984262;28;20403;-62
2022/11/13 09:09:50;;;;;;;13.65;6.70;;;;;;;;;;4987914;28;20126;-62
2022/11/13 09:12:34;;;;;;;14.68;8.07;;;;;;;;;;4985164;28;20567;-62
2022/11/13 09:15:18;;;;;;;14.60;7.82;;;;;;;;;;4986786;28;20091;-62
2022/11/13 09:18:04;;;;;;;9.75;6.55;;;;;;;;;;4974195;28;20087;-62
2022/11/13 09:20:48;;;;;;;13.45;6.25;;;;;;;;;;4981180;28;20511;-62
2022/11/13 09:23:34;;;;;;;12.50;6.15;;;;;;;;;;4977793;28;20042;-62
2022/11/13 09:26:19;;;;;;;13.02;6.72;;;;;;;;;;4985153;28;20087;-62
2022/11/13 09:29:04;;;;;;;11.35;5.72;;;;;;;;;;4983019;28;20041;-62
2022/11/13 09:31:49;;;;;;;16.85;6.53;;;;;;;;;;4979170;28;20062;-62
2022/11/13 09:34:34;;;;;;;9.45;5.50;;;;;;;;;;4979043;28;20080;-63
2022/11/13 09:37:19;;;;;;;14.02;5.20;;;;;;;;;;4984188;28;20037;-63
2022/11/13 09:40:03;;;;;;;13.50;4.97;;;;;;;;;;4990066;28;20045;-62
2022/11/13 09:42:48;;;;;;;14.40;5.35;;;;;;;;;;4983239;28;20046;-62
2022/11/13 09:45:33;;;;;;;16.85;6.82;;;;;;;;;;4986567;28;20160;-62
2022/11/13 09:48:27;;;;;;;12.15;4.75;;;;;;;;;;4990704;28;20037;-62
2022/11/13 09:51:14;;;;;;;8.73;5.13;;;;;;;;;;4985111;28;20042;-62
2022/11/13 09:54:02;;;;;;;14.07;5.18;;;;;;;;;;4981181;28;20601;-62
2022/11/13 09:56:47;;;;;;;16.38;5.97;;;;;;;;;;4982776;28;20050;-63
2022/11/13 09:59:35;;;;;;;14.90;5.18;;;;;;;;;;4982861;28;20046;-62
2022/11/13 10:02:27;;;;;;;12.70;5.13;;;;;;;;;;4981704;28;20203;-62
2022/11/13 10:05:12;;;;;;;9.80;4.82;;;;;;;;;;4980121;28;20073;-62
2022/11/13 10:08:24;;;;;;;14.85;6.15;;;;;;;;;;4981586;28;20096;-62
2022/11/13 10:11:15;;;;;;;11.90;4.32;;;;;;;;;;4980863;28;20099;-62
2022/11/13 10:14:07;;;;;;;10.48;5.05;;;;;;;;;;4980798;28;20519;-62
2022/11/13 10:16:58;;;;;;;10.88;5.22;;;;;;;;;;4982194;28;20038;-62
2022/11/13 10:20:09;;;;;;;9.13;5.90;;;;;;;;;;4981729;28;20046;-62
2022/11/13 10:22:56;;;;;;;16.73;5.47;;;;;;;;;;4996099;28;20529;-62
2022/11/13 10:25:43;;;;;;;12.57;5.40;;;;;;;;;;4978315;28;20034;-62
2022/11/13 10:28:27;;;;;;;9.60;4.60;;;;;;;;;;4982050;28;20037;-62
2022/11/13 10:31:13;;;;;;;14.30;5.03;;;;;;;;;;4983602;28;20326;-62
2022/11/13 10:33:58;;;;;;;15.18;4.88;;;;;;;;;;4978337;28;20050;-62
2022/11/13 10:37:02;;;;;;;14.75;4.78;;;;;;;;;;4983478;28;20060;-62
2022/11/13 10:39:46;;;;;;;12.63;4.68;;;;;;;;;;4982130;28;20112;-62
2022/11/13 10:42:39;;;;;;;12.65;4.75;;;;;;;;;;4982731;28;20549;-62
2022/11/13 10:45:24;;;;;;;13.85;4.50;;;;;;;;;;4982351;28;20041;-62
2022/11/13 10:48:19;;;;;;;11.00;4.18;;;;;;;;;;4983700;28;20061;-63
2022/11/13 10:51:24;;;;;;;9.80;4.28;;;;;;;;;;4980290;28;20069;-62
2022/11/13 10:54:23;;;;;;;13.45;5.80;;;;;;;;;;4983966;28;20052;-62
2022/11/13 10:57:17;;;;;;;8.25;4.20;;;;;;;;;;4981572;28;20041;-63
2022/11/13 11:00:02;;;;;;;12.70;4.32;;;;;;;;;;4984520;28;20069;-62
2022/11/13 11:02:50;;;;;;;7.78;4.10;;;;;;;;;;4983345;28;20068;-62
2022/11/13 11:05:34;;;;;;;18.38;5.53;;;;;;;;;;4981330;28;20137;-62
2022/11/13 11:08:21;;;;;;;13.65;4.68;;;;;;;;;;4982193;28;20033;-62
2022/11/13 11:14:37;;;;;;;9.95;4.38;;;;;;;;;;4983584;28;20076;-62
2022/11/13 11:17:41;;;;;;;11.70;4.65;;;;;;;;;;4981210;28;20046;-62
2022/11/13 11:20:44;;;;;;;12.50;4.63;;;;;;;;;;4979339;28;20041;-62
2022/11/13 11:23:29;;;;;;;;;;;;;;;;;;4981505;28;20102;-62
2022/11/13 11:26:30;;;;;;;13.60;4.18;;;;;;;;;;4978740;28;19964;-62
2022/11/13 11:29:26;;;;;;;10.02;4.03;;;;;;;;;;4981085;28;20621;-62
2022/11/13 11:32:14;;;;;;;8.43;3.78;;;;;;;;;;4984991;28;20038;-62
2022/11/13 11:35:04;;;;;;;9.75;4.07;;;;;;;;;;4981560;28;20602;-62
2022/11/13 11:38:03;;;;;;;15.50;5.43;;;;;;;;;;4978197;28;20045;-62
2022/11/13 11:40:51;;;;;;;5.60;3.75;;;;;;;;;;4979042;28;20060;-63
2022/11/13 11:43:42;;;;;;;13.75;4.03;;;;;;;;;;4980892;28;20049;-62
2022/11/13 11:46:28;;;;;;;7.95;3.85;;;;;;;;;;4983076;28;20065;-62
2022/11/13 11:49:13;;;;;;;7.13;3.67;;;;;;;;;;4982229;28;20534;-62
2022/11/13 11:52:11;;;;;;;10.52;4.22;;;;;;;;;;4982469;28;20522;-62
2022/11/13 11:55:15;;;;;;;10.75;3.90;;;;;;;;;;4983766;28;20084;-62
2022/11/13 11:58:18;;;;;;;8.23;3.45;;;;;;;;;;4979018;28;20411;-62
2022/11/13 12:01:17;;;;;;;5.28;3.30;;;;;;;;;;4982138;28;20084;-61
2022/11/13 12:04:17;;;;;;;7.35;3.20;;;;;;;;;;4982836;28;20054;-62
2022/11/13 12:07:04;;;;;;;10.32;3.53;;;;;;;;;;4976296;28;20084;-62
2022/11/13 12:09:55;;;;;;;10.55;3.65;;;;;;;;;;4978644;28;20487;-62
2022/11/13 12:12:49;;;;;;;9.05;3.92;;;;;;;;;;4982289;28;20431;-62
2022/11/13 12:15:57;;;;;;;10.32;4.00;;;;;;;;;;4980136;28;20126;-62
2022/11/13 12:19:03;;;;;;;10.73;3.92;;;;;;;;;;5003667;28;20048;-62
2022/11/13 12:22:09;;;;;;;9.68;4.75;;;;;;;;;;5007823;28;20045;-62
2022/11/13 12:24:57;;;;;;;9.25;3.22;;;;;;;;;;5004625;28;20534;-62
2022/11/13 12:27:53;;;;;;;10.00;3.53;;;;;;;;;;4989744;28;20057;-62
2022/11/13 12:30:41;;;;;;;6.45;3.08;;;;;;;;;;4997199;28;20044;-62
2022/11/13 12:33:25;;;;;;;8.43;3.35;;;;;;;;;;5003644;28;20045;-62
2022/11/13 12:36:11;;;;;;;8.05;3.28;;;;;;;;;;5009502;28;20040;-62
2022/11/13 12:39:05;;;;;;;7.32;3.60;;;;;;;;;;5004741;28;20087;-63
2022/11/13 12:41:49;;;;;;;9.07;2.92;;;;;;;;;;4987021;28;20061;-63
2022/11/13 12:44:42;;;;;;;7.22;3.55;;;;;;;;;;5004042;28;20045;-62
2022/11/13 12:47:27;;;;;;;7.57;3.20;;;;;;;;;;5007491;28;20048;-62
2022/11/13 12:50:24;;;;;;;7.90;3.03;;;;;;;;;;5009594;28;20044;-63
2022/11/13 12:53:10;;;;;;;14.10;3.35;;;;;;;;;;5005661;28;20040;-62
2022/11/13 12:55:58;;;;;;;11.80;3.17;;;;;;;;;;4987965;28;20081;-62
2022/11/13 12:58:57;;;;;;;8.05;2.90;;;;;;;;;;4983067;28;20089;-62
2022/11/13 13:01:51;;;;;;;7.78;2.90;;;;;;;;;;4981957;28;20415;-64
2022/11/13 13:04:59;;;;;;;9.18;3.40;;;;;;;;;;4979927;28;20434;-63
2022/11/13 13:07:59;;;;;;;8.93;2.97;;;;;;;;;;5018822;28;20446;-63
2022/11/13 13:11:05;;;;;;;10.32;3.17;;;;;;;;;;5012709;28;20044;-62
2022/11/13 13:13:58;;;;;;;5.85;3.40;;;;;;;;;;5011119;28;20087;-62
2022/11/13 13:16:43;;;;;;;5.40;3.33;;;;;;;;;;5007286;28;20553;-62
2022/11/13 13:19:31;;;;;;;7.53;3.20;;;;;;;;;;5017193;28;20590;-62
2022/11/13 13:22:29;;;;;;;8.13;3.42;;;;;;;;;;5006837;28;20096;-63
2022/11/13 13:25:27;;;;;;;7.75;3.08;;;;;;;;;;5018944;28;20040;-62
2022/11/13 13:28:20;;;;;;;3.55;2.70;;;;;;;;;;5000293;28;20044;-62
2022/11/13 13:31:04;;;;;;;12.48;4.00;;;;;;;;;;5018624;28;20092;-62
2022/11/13 13:33:48;;;;;;;7.80;3.25;;;;;;;;;;5000793;28;20049;-62
2022/11/13 13:36:42;;;;;;;10.48;3.05;;;;;;;;;;5025751;28;20116;-62
2022/11/13 13:39:26;;;;;;;;;;;;;;;;;;5021599;28;20049;-63
2022/11/13 13:42:11;;;;;;;7.93;2.88;;;;;;;;;;5004174;28;19918;-62
2022/11/13 13:45:02;;;;;;;7.68;3.03;;;;;;;;;;4991987;28;20518;-62
2022/11/13 13:47:48;;;;;;;12.38;3.10;;;;;;;;;;4988372;28;20034;-62
2022/11/13 13:50:38;;;;;;;13.75;4.57;;;;;;;;;;4989536;28;20452;-62
2022/11/13 13:53:28;;;;;;;8.88;3.15;;;;;;;;;;4978426;28;20121;-62
2022/11/13 13:56:13;;;;;;;9.77;2.85;;;;;;;;;;4983088;28;20072;-62
2022/11/13 13:58:59;;;;;;;6.53;3.17;;;;;;;;;;4980520;28;20030;-62
2022/11/13 14:01:52;;;;;;;8.45;3.15;;;;;;;;;;4985921;28;20054;-62
2022/11/13 14:04:44;;;;;;;6.10;2.97;;;;;;;;;;4979469;28;20058;-62
2022/11/13 14:07:30;;;;;;;5.80;2.80;;;;;;;;;;4983648;28;20079;-62
2022/11/13 14:10:16;;;;;;;4.82;2.95;;;;;;;;;;4978514;28;20050;-63
2022/11/13 14:13:01;;;;;;;8.95;3.03;;;;;;;;;;4981818;28;20133;-62
2022/11/13 14:15:45;;;;;;;7.75;3.63;;;;;;;;;;4984993;28;20053;-63
2022/11/13 14:18:31;;;;;;;8.40;2.83;;;;;;;;;;4984495;28;20183;-62
2022/11/13 14:21:18;;;;;;;7.57;2.92;;;;;;;;;;4984630;28;20045;-62
2022/11/13 14:24:04;;;;;;;13.75;3.80;;;;;;;;;;4979470;28;20042;-62
2022/11/13 14:26:50;;;;;;;11.65;3.10;;;;;;;;;;4982896;28;20053;-63
2022/11/13 14:29:37;;;;;;;10.90;3.50;;;;;;;;;;4988738;28;20068;-62
2022/11/13 14:32:26;;;;;;;9.25;3.72;;;;;;;;;;4987482;28;20152;-62
2022/11/13 14:35:18;;;;;;;7.53;3.60;;;;;;;;;;4986835;28;20037;-62
2022/11/13 14:38:03;;;;;;;9.18;3.50;;;;;;;;;;4971001;28;20124;-62
2022/11/13 14:40:48;;;;;;;10.63;3.95;;;;;;;;;;4978966;28;20073;-62
2022/11/13 14:43:33;;;;;;;8.05;3.35;;;;;;;;;;4985909;28;20516;-62
2022/11/13 14:46:27;;;;;;;7.93;3.90;;;;;;;;;;4971197;28;20119;-62
2022/11/13 14:49:13;;;;;;;11.05;3.30;;;;;;;;;;4970818;28;20046;-62
2022/11/13 14:52:00;;;;;;;8.90;3.70;;;;;;;;;;4983129;28;20424;-62
2022/11/13 14:54:45;;;;;;;8.43;4.25;;;;;;;;;;5023502;28;20087;-62
2022/11/13 14:57:30;;;;;;;10.57;3.50;;;;;;;;;;4975049;28;20057;-62
2022/11/13 15:00:19;;;;;;;10.40;3.60;;;;;;;;;;4982339;28;20408;-62
2022/11/13 15:03:05;;;;;;;11.68;3.92;;;;;;;;;;4980650;28;20057;-62
2022/11/13 15:05:50;;;;;;;12.20;4.20;;;;;;;;;;4978915;28;20033;-62
2022/11/13 15:08:35;;;;;;;7.22;3.88;;;;;;;;;;4984039;28;20076;-63
2022/11/13 15:11:21;;;;;;;9.20;3.88;;;;;;;;;;4976421;28;20096;-62
2022/11/13 15:14:13;;;;;;;10.00;3.72;;;;;;;;;;4987485;28;20042;-62
2022/11/13 15:16:58;;;;;;;12.73;4.35;;;;;;;;;;4971916;28;20038;-62
2022/11/13 15:19:43;;;;;;;11.40;3.78;;;;;;;;;;4979470;28;20045;-62
2022/11/13 15:22:28;;;;;;;9.85;4.13;;;;;;;;;;4986253;28;20045;-62
2022/11/13 15:25:17;;;;;;;10.70;4.38;;;;;;;;;;4989137;28;20526;-62
2022/11/13 15:28:01;;;;;;;13.20;4.43;;;;;;;;;;4976858;28;20496;-62
2022/11/13 15:30:46;;;;;;;8.23;3.83;;;;;;;;;;4978207;28;20099;-62
2022/11/13 15:33:30;;;;;;;7.22;3.97;;;;;;;;;;4986541;28;20052;-62
2022/11/13 15:36:15;;;;;;;11.85;4.68;;;;;;;;;;4986549;28;20041;-63
2022/11/13 15:39:00;;;;;;;10.45;4.72;;;;;;;;;;4975798;28;20054;-62
2022/11/13 15:41:46;;;;;;;10.30;4.50;;;;;;;;;;4974678;28;20126;-62
2022/11/13 15:44:30;;;;;;;12.32;4.13;;;;;;;;;;4976711;28;20085;-62
2022/11/13 15:47:25;;;;;;;11.73;4.32;;;;;;;;;;4986489;28;20126;-62
2022/11/13 15:50:10;;;;;;;6.90;3.53;;;;;;;;;;4970308;28;20037;-62
2022/11/13 15:52:55;;;;;;;13.15;4.53;;;;;;;;;;4969781;28;20840;-62
2022/11/13 15:55:41;;;;;;;15.25;4.30;;;;;;;;;;4985629;28;20081;-62
2022/11/13 15:58:25;;;;;;;11.63;4.63;;;;;;;;;;4982409;28;20058;-63
2022/11/13 16:01:13;;;;;;;10.75;4.40;;;;;;;;;;4978975;28;20092;-62
2022/11/13 16:04:01;;;;;;;12.75;4.47;;;;;;;;;;4980284;28;20746;-62
2022/11/13 16:06:45;;;;;;;12.65;4.78;;;;;;;;;;4979321;28;20066;-63
2022/11/13 16:09:30;;;;;;;9.70;4.30;;;;;;;;;;4980910;28;20041;-63
2022/11/13 16:12:14;;;;;;;12.35;4.95;;;;;;;;;;4979667;28;20063;-62
2022/11/13 16:14:59;;;;;;;14.57;5.60;;;;;;;;;;4985805;28;20050;-62
2022/11/13 16:17:45;;;;;;;11.43;5.43;;;;;;;;;;4978707;28;20037;-63
2022/11/13 16:20:30;;;;;;;11.38;4.22;;;;;;;;;;4980241;28;20096;-62
2022/11/13 16:23:18;;;;;;;8.60;4.38;;;;;;;;;;4976654;28;20126;-63
2022/11/13 16:26:03;;;;;;;19.45;6.35;;;;;;;;;;4982229;28;20456;-62
2022/11/13 16:28:48;;;;;;;20.75;10.15;;;;;;;;;;4981519;28;20429;-62
2022/11/13 16:31:33;;;;;;;17.73;8.85;;;;;;;;;;4979920;28;20045;-62